WetterOnline ( https://www.wetteronline.de )

Wetter aktuell Riegel

Aktuelles Wetter: Freiburg/Flugplatz (236m)

6-stündlich | Neueste Meldungen
Ortszeit Temperatur Wetter
Di, 27.10. 7:00 9.0° C bewölkt
Di, 27.10. 1:00 8.7° C bedeckt
Mo, 26.10. 19:00 9.1° C bewölkt
Mo, 26.10. 13:00 8.9° C leichter Regen
Mo, 26.10. 7:00 9.5° C leichter Regen
Mo, 26.10. 1:00 11.8° C bedeckt
So, 25.10. 19:00 15.6° C bewölkt
So, 25.10. 13:00 18.2° C bewölkt
Ortszeit Temperatur Wetter
Di, 27.10. 8:00 8.6° C wolkenlos
Di, 27.10. 7:50 8.6° C wolkenlos
Di, 27.10. 7:40 8.7° C fast wolkenlos
Di, 27.10. 7:30 8.7° C leicht bewölkt
Di, 27.10. 7:20 8.7° C leicht bewölkt
Di, 27.10. 7:10 8.8° C fast wolkenlos
Di, 27.10. 7:00 9.0° C bewölkt
Di, 27.10. 6:30 9.3° C bedeckt
Di, 27.10. 6:00 9.1° C bewölkt
Di, 27.10. 5:30 9.1° C bewölkt
Di, 27.10. 5:00 9.3° C bedeckt
Ortszeit Relative Feuchte Sichtweite
Di, 27.10. 7:00 77% 70 km
Di, 27.10. 1:00 79% 70 km
Mo, 26.10. 19:00 78% 70 km
Mo, 26.10. 13:00 84% 15 km
Mo, 26.10. 7:00 95% 7 km
Mo, 26.10. 1:00 94% 19 km
So, 25.10. 19:00 61% 70 km
So, 25.10. 13:00 45% 60 km
Ortszeit Relative Feuchte Sichtweite
Di, 27.10. 8:00 78% 70 km
Di, 27.10. 7:50 78% -
Di, 27.10. 7:40 78% -
Di, 27.10. 7:30 78% 70 km
Di, 27.10. 7:20 78% -
Di, 27.10. 7:10 78% -
Di, 27.10. 7:00 77% 70 km
Di, 27.10. 6:30 74% 70 km
Di, 27.10. 6:00 76% 70 km
Di, 27.10. 5:30 75% 70 km
Di, 27.10. 5:00 76% 70 km
Ortszeit Niederschlagsmenge Niederschlagsart
Di, 27.10. 7:00 0.1 l/m2 in 12 Std. Regen
Di, 27.10. 1:00 0.1 l/m2 in 6 Std. Regen
Mo, 26.10. 19:00 5 l/m2 in 12 Std. Regen
Mo, 26.10. 13:00 5 l/m2 in 6 Std. Regen
Mo, 26.10. 7:00 12 l/m2 in 12 Std. Regen
Mo, 26.10. 1:00 0.1 l/m2 in 6 Std. Regen
So, 25.10. 19:00 0.0 l/m2 in 12 Std. -
So, 25.10. 13:00 0.0 l/m2 in 6 Std. -
Ortszeit Niederschlagsmenge Niederschlagsart
Di, 27.10. 8:00 0.0 l/m2 in 1 Std. -
Di, 27.10. 7:50 keine Meldung -
Di, 27.10. 7:40 keine Meldung -
Di, 27.10. 7:30 0.0 l/m2 in 1 Std. -
Di, 27.10. 7:20 keine Meldung -
Di, 27.10. 7:10 keine Meldung -
Di, 27.10. 7:00 0.0 l/m2 in 1 Std. Regen
Di, 27.10. 6:30 0.0 l/m2 in 1 Std. -
Di, 27.10. 6:00 0.0 l/m2 in 1 Std. -
Di, 27.10. 5:30 0.0 l/m2 in 1 Std. -
Di, 27.10. 5:00 0.1 l/m2 in 1 Std. Regen
Ortszeit Stärke Spitze Richtung
km/h Bft. km/h Grad Sektor
Di, 27.10. 7:00 20 4 31 200° S
Di, 27.10. 1:00 11 2 18 190° S
Mo, 26.10. 19:00 11 2 29 190° S
Mo, 26.10. 13:00 14 3 36 200° S
Mo, 26.10. 7:00 13 3 31 230° SW
Mo, 26.10. 1:00 2 1 13 30° NO
So, 25.10. 19:00 9 2 35 160° S
So, 25.10. 13:00 20 4 39 230° SW
Ortszeit Stärke Spitze Richtung
km/h Bft. km/h Grad Sektor
Di, 27.10. 8:00 14 3 25 200° S
Di, 27.10. 7:50 14 3 - 200° S
Di, 27.10. 7:40 14 3 - 210° SW
Di, 27.10. 7:30 17 3 26 200° S
Di, 27.10. 7:20 17 3 - 200° S
Di, 27.10. 7:10 17 3 - 200° S
Di, 27.10. 7:00 20 4 30 200° S
Di, 27.10. 6:30 17 3 30 200° S
Di, 27.10. 6:00 20 4 31 200° S
Di, 27.10. 5:30 13 3 20 200° S
Di, 27.10. 5:00 14 3 22 210° SW
Ortszeit Untergrenze Bedeckung Gattung
total tief tief mittel hoch
Di, 27.10. 7:00 2100 m 7/8 7/8 - - -
Di, 27.10. 1:00 5100 m 8/8 8/8 - - -
Mo, 26.10. 19:00 1500 m 8/8 5/8 - - -
Mo, 26.10. 13:00 1140 m 7/8 7/8 - - -
Mo, 26.10. 7:00 240 m 8/8 8/8 - - -
Mo, 26.10. 1:00 540 m 8/8 8/8 - - -
So, 25.10. 19:00 1800 m 8/8 4/8 - - -
So, 25.10. 13:00 4800 m 8/8 6/8 - - -
Ortszeit Bedeckungsgrad in Achtel und Wolkenuntergrenze
Di, 27.10. 8:00 keine Wolken
Di, 27.10. 7:50 keine Wolken
Di, 27.10. 7:40 1(1800m)
Di, 27.10. 7:30 2(1800m)
Di, 27.10. 7:20 2(1800m)
Di, 27.10. 7:10 1(2100m)
Di, 27.10. 7:00 7(2100m) 7(2400m)
Di, 27.10. 6:30 4(1440m) 8(2400m) 8(6300m)
Di, 27.10. 6:00 2(1380m) 6(1800m) 8(6600m)
Di, 27.10. 5:30 6(1800m) 8(6000m) 8(7200m)
Di, 27.10. 5:00 8(1800m) 8(6300m)
Ortszeit Luftdruck NN (hPa) Tendenz (hPa in 3 Std.)
Di, 27.10. 7:00 1012 + 1,6
Di, 27.10. 1:00 1011 - 0,1
Mo, 26.10. 19:00 1010 + 1,0
Mo, 26.10. 13:00 1009 + 0,2
Mo, 26.10. 7:00 1007 + 1,8
Mo, 26.10. 1:00 1005 - 0,3
So, 25.10. 19:00 1006 + 0,3
So, 25.10. 13:00 1008 - 0,7
Ortszeit Luftdruck NN (hPa) Tendenz (hPa in 3 Std.)
Di, 27.10. 8:00 1012 + 1,7
Di, 27.10. 7:50 1012 keine Meldung
Di, 27.10. 7:40 1012 keine Meldung
Di, 27.10. 7:30 1012 + 1,5
Di, 27.10. 7:20 1012 keine Meldung
Di, 27.10. 7:10 1012 keine Meldung
Di, 27.10. 7:00 1012 + 1,6
Di, 27.10. 6:30 1012 + 1,2
Di, 27.10. 6:00 1011 + 0,7
Di, 27.10. 5:30 1011 + 0,1
Di, 27.10. 5:00 1010 - 0,2
Ortszeit Schneehöhe (cm)
Di, 27.10. 7:00 0
Di, 27.10. 1:00 0
Mo, 26.10. 19:00 0
Mo, 26.10. 13:00 0
Mo, 26.10. 7:00 0
Mo, 26.10. 1:00 0
So, 25.10. 19:00 0
So, 25.10. 13:00 0
Ortszeit Schneehöhe (cm)
Di, 27.10. 8:00 0
Di, 27.10. 7:50 0
Di, 27.10. 7:40 0
Di, 27.10. 7:30 0
Di, 27.10. 7:20 0
Di, 27.10. 7:10 0
Di, 27.10. 7:00 0
Di, 27.10. 6:30 0
Di, 27.10. 6:00 0
Di, 27.10. 5:30 0
Di, 27.10. 5:00 0
Link zu dieser Seite / Seite empfehlen

Das Wetter in ...